Skip Navigation Links Skip Navigation Links

Current Weather

South Bend Regional, South Bend, Ind.

For information only: do not use for flight planning or navigation.
Latest weather
Observation time Tuesday, October 19, 2021 3:54 AM EDT
Local time Tuesday, October 19, 2021 4:40 AM EDT
Flight conditions Visual Meteorological Conditions
Winds
Wind direction Southwest (220°)
Wind speed 9 mph
Visibility 10 mi.
Sky condition
Ceiling unlimited
Sky clear
Temperature 51°F
Dewpoint 43°F
Altimeter 30.12 in.Hg
Derived measurements
Relative humidity 74%
Density altitude 182 ft.
Sea-level pressure 30.12 in.Hg
Remarks
Fully automated report.
Automated weather observing station with precipitation discriminator.
METAR KSBN 190754Z AUTO 22008KT 10SM CLR 11/06 A3012 RMK AO2 SLP200 T01060061

Settings

Location code

InnerDrive.Weather 4.0.6770.0 Release CLR 4.0.30319.42000
Copyright ©2018 Inner Drive Technology. All rights reserved. Portions Copyright ©1986-2018 David Braverman.

Find weather

Site navigation


Skip Navigation Links

Place info

Page info

PayPal - The safer, easier way to pay online!

Return home.

Copyright ©2021 Inner Drive Technology. Purveyors of fine, hand-crafted computer software. Page printed 2021-10-19T08:40:20 UTC.